createdAt,value
2017-09-07T00:01:54.643Z,12.20
2017-09-07T00:04:22.679Z,12.30
2017-09-07T00:06:50.695Z,12.30
2017-09-07T00:09:18.751Z,12.30
2017-09-07T00:11:46.775Z,12.30
2017-09-07T00:14:14.791Z,12.30
2017-09-07T00:16:42.815Z,12.30
2017-09-07T00:19:10.839Z,12.30
2017-09-07T00:21:38.899Z,12.30
2017-09-07T00:24:06.938Z,12.30
2017-09-07T00:26:34.962Z,12.30
2017-09-07T00:29:02.978Z,12.30
2017-09-07T00:31:31.011Z,12.30
2017-09-07T00:34:34.815Z,12.30
2017-09-07T00:37:03.630Z,12.30
2017-09-07T00:39:31.651Z,12.30
2017-09-07T00:41:59.675Z,12.30
2017-09-07T00:44:28.719Z,12.30
2017-09-07T00:46:56.743Z,12.40
2017-09-07T00:49:24.763Z,12.40
2017-09-07T00:51:52.811Z,12.40
2017-09-07T00:54:20.826Z,12.40
2017-09-07T00:56:49.598Z,12.30
2017-09-07T00:59:18.387Z,12.30
2017-09-07T01:01:47.167Z,12.30
2017-09-07T01:04:15.190Z,12.30
2017-09-07T01:06:43.222Z,12.30
2017-09-07T01:09:12.903Z,12.30
2017-09-07T01:11:40.915Z,12.20
2017-09-07T01:14:08.967Z,12.30
2017-09-07T01:16:39.671Z,12.20
2017-09-07T01:19:07.699Z,12.20
2017-09-07T01:21:35.755Z,12.20
2017-09-07T01:24:03.774Z,12.20
2017-09-07T01:26:31.803Z,12.20
2017-09-07T01:29:00.770Z,12.20
2017-09-07T01:31:29.554Z,12.10
2017-09-07T01:33:58.330Z,12.10
2017-09-07T01:36:28.130Z,12.00
2017-09-07T01:38:56.150Z,12.00
2017-09-07T01:41:24.170Z,12.00
2017-09-07T01:43:52.211Z,12.00
2017-09-07T01:46:20.231Z,11.90
2017-09-07T01:48:49.026Z,11.90
2017-09-07T01:51:17.823Z,11.80
2017-09-07T01:53:46.608Z,11.70
2017-09-07T01:56:15.394Z,11.60
2017-09-07T01:58:44.210Z,11.60
2017-09-07T02:01:12.210Z,11.50
2017-09-07T02:03:40.237Z,11.50
2017-09-07T02:06:08.270Z,11.40
2017-09-07T02:08:38.998Z,11.30
2017-09-07T02:11:07.031Z,11.30
2017-09-07T02:13:35.062Z,11.30
2017-09-07T02:16:03.845Z,11.30
2017-09-07T02:18:32.634Z,11.30
2017-09-07T02:21:02.336Z,11.30
2017-09-07T02:23:32.130Z,11.40
2017-09-07T02:26:00.154Z,11.30
2017-09-07T02:28:31.017Z,11.40
2017-09-07T02:30:59.031Z,11.40
2017-09-07T02:33:27.814Z,11.40
2017-09-07T02:35:56.614Z,11.40
2017-09-07T02:38:25.570Z,11.40
2017-09-07T02:40:54.345Z,11.50
2017-09-07T02:43:23.277Z,11.40
2017-09-07T02:45:52.062Z,11.50
2017-09-07T02:48:21.882Z,11.50
2017-09-07T02:50:51.661Z,11.60
2017-09-07T02:53:20.578Z,11.50
2017-09-07T02:55:49.366Z,11.60
2017-09-07T02:58:17.421Z,11.60
2017-09-07T03:00:45.437Z,11.60
2017-09-07T03:03:13.453Z,11.60
2017-09-07T03:05:42.458Z,11.60
2017-09-07T03:08:12.245Z,11.60
2017-09-07T03:10:41.226Z,11.60
2017-09-07T03:13:09.258Z,11.60
2017-09-07T03:15:37.277Z,11.60
2017-09-07T03:18:05.305Z,11.60
2017-09-07T03:20:33.345Z,11.60
2017-09-07T03:23:03.129Z,11.60
2017-09-07T03:25:31.158Z,11.60
2017-09-07T03:27:59.189Z,11.60
2017-09-07T03:30:28.102Z,11.60
2017-09-07T03:32:56.129Z,11.50
2017-09-07T03:35:25.137Z,11.50
2017-09-07T03:37:53.927Z,11.50
2017-09-07T03:40:22.721Z,11.50
2017-09-07T03:42:51.521Z,11.60
2017-09-07T03:45:19.561Z,11.50
2017-09-07T03:47:47.589Z,11.60
2017-09-07T03:50:15.625Z,11.60
2017-09-07T03:52:44.424Z,11.60
2017-09-07T03:55:15.141Z,11.60
2017-09-07T03:57:45.845Z,11.60
2017-09-07T04:00:14.745Z,11.50
2017-09-07T04:02:42.874Z,11.50
2017-09-07T04:05:15.381Z,11.60
2017-09-07T04:07:46.129Z,11.50
2017-09-07T04:10:14.153Z,11.50
2017-09-07T04:12:42.177Z,11.50
2017-09-07T04:15:10.977Z,11.50
2017-09-07T04:17:39.765Z,11.50
2017-09-07T04:20:09.481Z,11.50
2017-09-07T04:22:38.297Z,11.50
2017-09-07T04:25:07.325Z,11.50
2017-09-07T04:27:36.317Z,11.50
2017-09-07T04:30:06.081Z,11.50
2017-09-07T04:32:34.101Z,11.50
2017-09-07T04:35:02.123Z,11.50
2017-09-07T04:37:30.157Z,11.50
2017-09-07T04:39:58.947Z,11.40
2017-09-07T04:42:26.965Z,11.30
2017-09-07T04:44:55.001Z,11.30
2017-09-07T04:47:23.797Z,11.20
2017-09-07T04:49:51.832Z,11.20
2017-09-07T04:52:19.882Z,11.10
2017-09-07T04:54:49.920Z,11.10
2017-09-07T04:57:17.952Z,11.00
2017-09-07T04:59:47.740Z,11.00
2017-09-07T05:02:15.760Z,10.90
2017-09-07T05:04:45.688Z,10.90
2017-09-07T05:07:14.504Z,11.00
2017-09-07T05:09:42.544Z,11.00
2017-09-07T05:12:13.263Z,11.10
2017-09-07T05:14:41.304Z,11.10
2017-09-07T05:17:10.336Z,11.20
2017-09-07T05:19:38.352Z,11.30
2017-09-07T05:22:06.400Z,11.40
2017-09-07T05:24:35.188Z,11.60
2017-09-07T05:27:04.956Z,11.80
2017-09-07T05:29:32.996Z,11.80
2017-09-07T05:32:02.947Z,11.80
2017-09-07T05:34:30.984Z,11.90
2017-09-07T05:36:59.028Z,12.10
2017-09-07T05:39:27.060Z,12.10
2017-09-07T05:41:55.088Z,12.10
2017-09-07T05:44:23.132Z,12.20
2017-09-07T05:46:53.945Z,12.30
2017-09-07T05:49:22.752Z,12.30
2017-09-07T05:51:50.788Z,12.30
2017-09-07T05:54:18.820Z,12.30
2017-09-07T05:56:46.880Z,12.30
2017-09-07T05:59:14.904Z,12.30
2017-09-07T06:01:43.836Z,12.30
2017-09-07T06:04:11.888Z,12.30
2017-09-07T06:06:39.916Z,12.40
2017-09-07T06:09:07.948Z,12.30
2017-09-07T06:11:41.692Z,12.40
2017-09-07T06:14:09.727Z,12.30
2017-09-07T06:16:37.791Z,12.20
2017-09-07T06:19:06.675Z,12.30
2017-09-07T06:21:36.260Z,12.40
2017-09-07T06:24:04.280Z,12.40
2017-09-07T06:26:34.240Z,12.50
2017-09-07T06:29:03.152Z,12.60
2017-09-07T06:31:32.108Z,12.60
2017-09-07T06:34:02.143Z,12.50
2017-09-07T06:36:31.200Z,12.90
2017-09-07T06:38:59.227Z,12.90
2017-09-07T06:41:28.028Z,13.10
2017-09-07T06:43:56.052Z,13.10
2017-09-07T06:46:25.044Z,13.20
2017-09-07T06:48:53.088Z,13.30
2017-09-07T06:51:21.115Z,13.10
2017-09-07T06:53:49.899Z,13.50
2017-09-07T06:56:19.908Z,13.40
2017-09-07T06:58:48.695Z,14.40
2017-09-07T07:01:18.380Z,14.50
2017-09-07T07:03:46.407Z,14.50
2017-09-07T07:06:15.347Z,14.80
2017-09-07T07:08:43.379Z,14.70
2017-09-07T07:11:12.407Z,14.50
2017-09-07T07:13:41.403Z,14.50
2017-09-07T07:16:09.423Z,14.40
2017-09-07T07:18:37.479Z,14.50
2017-09-07T07:21:05.508Z,14.60
2017-09-07T07:23:33.536Z,14.70
2017-09-07T07:26:01.564Z,14.70
2017-09-07T07:28:30.075Z,14.60
2017-09-07T07:30:58.095Z,14.70
2017-09-07T07:33:28.127Z,14.80
2017-09-07T07:35:57.104Z,15.00
2017-09-07T07:38:26.083Z,15.00
2017-09-07T07:40:54.119Z,14.80
2017-09-07T07:43:22.139Z,14.90
2017-09-07T07:45:50.593Z,14.90
2017-09-07T07:48:19.647Z,15.10
2017-09-07T07:50:49.923Z,15.20
2017-09-07T07:53:20.990Z,15.20
2017-09-07T07:55:50.895Z,15.60
2017-09-07T07:58:18.922Z,15.60
2017-09-07T08:00:47.967Z,15.90
2017-09-07T08:03:15.991Z,15.90
2017-09-07T08:05:45.715Z,15.90
2017-09-07T08:08:13.759Z,15.90
2017-09-07T08:10:54.287Z,15.90
2017-09-07T08:13:24.999Z,16.60
2017-09-07T08:15:53.011Z,16.50
2017-09-07T08:18:21.952Z,16.80
2017-09-07T08:20:51.979Z,16.90
2017-09-07T08:23:20.006Z,16.90
2017-09-07T08:25:49.948Z,17.30
2017-09-07T08:28:24.663Z,17.00
2017-09-07T08:30:52.683Z,17.20
2017-09-07T08:33:22.451Z,17.50
2017-09-07T08:35:50.495Z,17.50
2017-09-07T08:38:18.520Z,17.40
2017-09-07T08:40:46.522Z,17.80
2017-09-07T08:43:14.571Z,17.90
2017-09-07T08:45:43.347Z,17.70
2017-09-07T08:48:12.137Z,17.90
2017-09-07T08:50:40.147Z,17.80
2017-09-07T08:53:08.162Z,18.10
2017-09-07T08:55:36.182Z,18.20
2017-09-07T08:58:04.218Z,18.50
2017-09-07T09:00:32.227Z,18.20
2017-09-07T09:03:00.247Z,17.90
2017-09-07T09:05:31.707Z,17.60
2017-09-07T09:08:00.482Z,17.70
2017-09-07T09:10:28.499Z,17.60
2017-09-07T09:13:02.219Z,17.30
2017-09-07T09:15:32.260Z,17.10
2017-09-07T09:18:01.255Z,17.10
2017-09-07T09:20:30.255Z,17.00
2017-09-07T09:22:58.283Z,17.40
2017-09-07T09:25:26.298Z,17.80
2017-09-07T09:27:55.218Z,17.90
2017-09-07T09:30:23.274Z,18.10
2017-09-07T09:32:53.066Z,18.90
2017-09-07T09:35:21.107Z,18.80
2017-09-07T09:37:49.123Z,18.70
2017-09-07T09:40:17.898Z,19.00
2017-09-07T09:42:46.690Z,19.20
2017-09-07T09:45:14.710Z,19.10
2017-09-07T09:47:43.723Z,19.30
2017-09-07T09:50:12.651Z,19.50
2017-09-07T09:52:42.439Z,19.70
2017-09-07T09:55:10.455Z,19.70
2017-09-07T09:57:38.494Z,19.10
2017-09-07T10:00:06.515Z,19.40
2017-09-07T10:02:34.537Z,20.30
2017-09-07T10:05:05.278Z,22.00
2017-09-07T10:07:34.062Z,22.70
2017-09-07T10:10:02.846Z,22.80
2017-09-07T10:12:31.959Z,21.60
2017-09-07T10:14:59.983Z,21.60
2017-09-07T10:17:27.998Z,20.60
2017-09-07T10:19:56.834Z,18.70
2017-09-07T10:22:24.838Z,18.60
2017-09-07T10:24:52.866Z,18.00
2017-09-07T10:27:22.899Z,17.60
2017-09-07T10:29:50.922Z,17.60
2017-09-07T10:32:18.942Z,17.60
2017-09-07T10:34:46.971Z,17.50
2017-09-07T10:37:14.991Z,17.70
2017-09-07T10:39:43.963Z,18.10
2017-09-07T10:42:14.003Z,18.20
2017-09-07T10:44:42.970Z,18.00
2017-09-07T10:47:11.962Z,17.70
2017-09-07T10:49:40.010Z,17.80
2017-09-07T10:52:08.030Z,17.60
2017-09-07T10:54:37.814Z,17.80
2017-09-07T10:57:05.842Z,17.80
2017-09-07T10:59:33.861Z,17.70
2017-09-07T11:02:04.910Z,17.70
2017-09-07T11:04:33.834Z,17.90
2017-09-07T11:07:01.858Z,17.90
2017-09-07T11:09:30.866Z,17.50
2017-09-07T11:11:58.881Z,17.30
2017-09-07T11:14:31.509Z,17.20
2017-09-07T11:17:00.298Z,17.40
2017-09-07T11:19:32.666Z,17.30
2017-09-07T11:22:00.699Z,17.50
2017-09-07T11:24:29.718Z,17.30
2017-09-07T11:27:02.205Z,17.30
2017-09-07T11:29:30.226Z,17.20
2017-09-07T11:31:58.249Z,17.10
2017-09-07T11:34:26.273Z,17.30
2017-09-07T11:36:54.293Z,17.20
2017-09-07T11:39:22.313Z,17.20
2017-09-07T11:41:50.345Z,17.20
2017-09-07T11:44:19.133Z,17.10
2017-09-07T11:46:47.170Z,17.10
2017-09-07T11:49:15.209Z,16.90
2017-09-07T11:51:44.233Z,16.80
2017-09-07T11:54:13.222Z,16.90
2017-09-07T11:56:41.249Z,17.00
2017-09-07T11:59:09.273Z,17.10
2017-09-07T12:01:37.301Z,17.20
2017-09-07T12:04:05.333Z,17.20
2017-09-07T12:06:35.249Z,16.90
2017-09-07T12:09:04.961Z,16.70
2017-09-07T12:11:32.992Z,16.70
2017-09-07T12:14:01.989Z,16.50
2017-09-07T12:16:30.029Z,16.40
2017-09-07T12:18:58.061Z,16.20
2017-09-07T12:21:26.109Z,16.30
2017-09-07T12:23:54.152Z,16.40
2017-09-07T12:26:23.877Z,16.30
2017-09-07T12:28:51.896Z,16.20
2017-09-07T12:31:19.944Z,16.30
2017-09-07T12:33:48.741Z,16.70
2017-09-07T12:36:18.512Z,16.90
2017-09-07T12:38:46.542Z,16.90
2017-09-07T12:41:14.572Z,16.90
2017-09-07T12:43:43.540Z,17.00
2017-09-07T12:46:11.588Z,17.30
2017-09-07T12:48:39.609Z,17.80
2017-09-07T12:51:08.397Z,18.40
2017-09-07T12:53:38.423Z,18.40
2017-09-07T12:56:06.437Z,18.60
2017-09-07T12:58:34.465Z,18.60
2017-09-07T13:01:04.249Z,18.60
2017-09-07T13:03:32.269Z,18.60
2017-09-07T13:06:00.292Z,18.70
2017-09-07T13:08:31.636Z,19.40
2017-09-07T13:11:04.684Z,20.00
2017-09-07T13:13:32.724Z,19.60
2017-09-07T13:16:02.499Z,19.20
2017-09-07T13:18:30.520Z,19.20
2017-09-07T13:21:03.156Z,19.20
2017-09-07T13:23:31.168Z,19.10
2017-09-07T13:25:59.184Z,19.20
2017-09-07T13:28:27.224Z,19.30
2017-09-07T13:30:56.260Z,19.70
2017-09-07T13:33:24.313Z,20.00
2017-09-07T13:35:53.264Z,19.90
2017-09-07T13:38:21.280Z,19.90
2017-09-07T13:40:50.272Z,19.70
2017-09-07T13:43:20.303Z,19.90
2017-09-07T13:45:48.320Z,19.70
2017-09-07T13:48:16.344Z,19.80
2017-09-07T13:50:44.380Z,19.80
2017-09-07T13:53:12.404Z,19.60
2017-09-07T13:55:41.191Z,18.80
2017-09-07T13:58:09.988Z,18.70
2017-09-07T14:00:38.007Z,18.60
2017-09-07T14:03:06.028Z,18.40
2017-09-07T14:05:35.811Z,18.20
2017-09-07T14:08:03.835Z,18.20
2017-09-07T14:10:32.859Z,18.30
2017-09-07T14:13:01.875Z,18.80
2017-09-07T14:15:30.839Z,19.70
2017-09-07T14:17:58.859Z,19.70
2017-09-07T14:20:26.895Z,19.60
2017-09-07T14:22:54.912Z,19.40
2017-09-07T14:25:22.931Z,19.20
2017-09-07T14:27:50.967Z,19.30
2017-09-07T14:30:18.991Z,19.70
2017-09-07T14:32:48.667Z,20.70
2017-09-07T14:35:16.699Z,20.60
2017-09-07T14:37:44.719Z,20.60
2017-09-07T14:40:13.640Z,20.80
2017-09-07T14:42:42.431Z,21.20
2017-09-07T14:45:10.463Z,21.20
2017-09-07T14:47:38.475Z,21.60
2017-09-07T14:50:06.504Z,21.40
2017-09-07T14:52:34.516Z,21.70
2017-09-07T14:55:02.532Z,21.80
2017-09-07T14:57:30.563Z,22.70
2017-09-07T14:59:58.575Z,22.90
2017-09-07T15:02:26.596Z,22.90
2017-09-07T15:04:54.619Z,22.50
2017-09-07T15:07:23.527Z,22.00
2017-09-07T15:09:53.303Z,20.70
2017-09-07T15:12:21.323Z,20.70
2017-09-07T15:14:49.351Z,20.50
2017-09-07T15:17:17.367Z,20.10
2017-09-07T15:19:45.387Z,19.70
2017-09-07T15:22:13.407Z,19.50
2017-09-07T15:24:41.434Z,19.00
2017-09-07T15:27:10.439Z,18.90
2017-09-07T15:29:38.451Z,18.70
2017-09-07T15:32:06.483Z,18.70
2017-09-07T15:34:35.279Z,18.60
2017-09-07T15:37:04.059Z,19.00
2017-09-07T15:39:33.834Z,20.00
2017-09-07T15:42:01.871Z,20.00
2017-09-07T15:44:29.887Z,21.30
2017-09-07T15:46:57.899Z,21.40
2017-09-07T15:49:26.862Z,21.20
2017-09-07T15:51:55.643Z,20.30
2017-09-07T15:54:24.623Z,20.20
2017-09-07T15:56:53.627Z,19.60
2017-09-07T15:59:21.654Z,19.20
2017-09-07T16:01:49.684Z,18.90
2017-09-07T16:04:17.699Z,18.60
2017-09-07T16:06:47.219Z,18.40
2017-09-07T16:09:16.019Z,18.00
2017-09-07T16:11:44.042Z,18.00
2017-09-07T16:14:12.062Z,17.90
2017-09-07T16:16:40.131Z,17.70
2017-09-07T16:19:08.147Z,17.60
2017-09-07T16:21:37.094Z,17.50
2017-09-07T16:24:05.102Z,17.50
2017-09-07T16:26:33.141Z,17.50
2017-09-07T16:29:02.854Z,17.40
2017-09-07T16:31:30.870Z,17.40
2017-09-07T16:33:58.899Z,17.50
2017-09-07T16:36:27.682Z,17.80
2017-09-07T16:38:58.912Z,17.80
2017-09-07T16:41:27.898Z,18.20
2017-09-07T16:43:55.910Z,18.80
2017-09-07T16:46:25.610Z,19.40
2017-09-07T16:48:54.398Z,19.40
2017-09-07T16:51:24.170Z,19.30
2017-09-07T16:53:54.919Z,19.30
2017-09-07T16:56:22.942Z,19.20
2017-09-07T16:58:52.886Z,19.10
2017-09-07T17:01:21.898Z,19.00
2017-09-07T17:03:49.918Z,18.80
2017-09-07T17:06:17.950Z,18.50
2017-09-07T17:08:46.738Z,18.10
2017-09-07T17:11:15.516Z,17.90
2017-09-07T17:13:43.545Z,17.80
2017-09-07T17:16:11.574Z,17.50
2017-09-07T17:18:42.378Z,17.00
2017-09-07T17:21:10.406Z,17.00
2017-09-07T17:23:38.434Z,16.80
2017-09-07T17:26:07.226Z,16.20
2017-09-07T17:28:36.198Z,16.20
2017-09-07T17:31:04.225Z,15.90
2017-09-07T17:33:33.154Z,15.60
2017-09-07T17:36:01.182Z,15.30
2017-09-07T17:38:29.246Z,15.00
2017-09-07T17:40:57.265Z,14.80
2017-09-07T17:43:25.286Z,14.60
2017-09-07T17:45:53.326Z,14.40
2017-09-07T17:48:22.126Z,13.90
2017-09-07T17:50:50.145Z,14.00
2017-09-07T17:53:18.189Z,13.70
2017-09-07T17:55:46.209Z,13.50
2017-09-07T17:58:14.230Z,13.40
2017-09-07T18:00:42.283Z,13.20
2017-09-07T18:03:10.312Z,13.00
2017-09-07T18:05:38.338Z,12.80
2017-09-07T18:08:06.389Z,12.60
2017-09-07T18:10:36.157Z,12.40
2017-09-07T18:13:04.177Z,12.40
2017-09-07T18:15:32.206Z,12.40
2017-09-07T18:18:02.217Z,12.30
2017-09-07T18:20:30.237Z,12.20
2017-09-07T18:22:58.273Z,12.00
2017-09-07T18:25:28.066Z,11.80
2017-09-07T18:27:56.089Z,11.80
2017-09-07T18:30:25.049Z,11.80
2017-09-07T18:32:53.849Z,11.80
2017-09-07T18:35:21.897Z,11.80
2017-09-07T18:37:49.934Z,11.80
2017-09-07T18:40:17.957Z,11.70
2017-09-07T18:42:46.002Z,11.70
2017-09-07T18:45:14.637Z,11.80
2017-09-07T18:47:42.657Z,11.80
2017-09-07T18:50:10.689Z,11.80
2017-09-07T18:52:38.745Z,11.70
2017-09-07T18:55:07.777Z,11.70
2017-09-07T18:57:36.777Z,11.60
2017-09-07T19:00:04.849Z,11.50
2017-09-07T19:02:33.837Z,11.40
2017-09-07T19:05:03.893Z,11.20
2017-09-07T19:07:31.925Z,11.00
2017-09-07T19:09:59.977Z,11.00
2017-09-07T19:12:29.037Z,10.90
2017-09-07T19:14:57.069Z,10.80
2017-09-07T19:17:26.053Z,10.80
2017-09-07T19:19:54.126Z,10.80
2017-09-07T19:22:22.148Z,10.90
2017-09-07T19:24:50.177Z,10.90
2017-09-07T19:27:20.013Z,10.90
2017-09-07T19:29:48.045Z,10.90
2017-09-07T19:32:16.068Z,10.80
2017-09-07T19:34:44.129Z,10.80
2017-09-07T19:37:12.365Z,10.70
2017-09-07T19:39:40.401Z,10.60
2017-09-07T19:42:08.445Z,10.50
2017-09-07T19:44:37.385Z,10.40
2017-09-07T19:47:05.417Z,10.30
2017-09-07T19:49:33.456Z,10.20
2017-09-07T19:52:02.249Z,10.20
2017-09-07T19:54:34.400Z,10.20
2017-09-07T19:57:03.188Z,10.20
2017-09-07T19:59:32.977Z,10.10
2017-09-07T20:02:01.925Z,10.10
2017-09-07T20:04:29.948Z,10.10
2017-09-07T20:06:57.971Z,10.10
2017-09-07T20:09:27.669Z,10.10
2017-09-07T20:11:55.692Z,10.00
2017-09-07T20:14:24.680Z,10.00
2017-09-07T20:16:52.744Z,9.90
2017-09-07T20:19:20.772Z,9.80
2017-09-07T20:21:48.789Z,9.80
2017-09-07T20:24:17.792Z,9.70
2017-09-07T20:26:45.812Z,9.60
2017-09-07T20:29:14.748Z,9.50
2017-09-07T20:31:42.788Z,9.50
2017-09-07T20:34:10.804Z,9.40
2017-09-07T20:36:40.603Z,9.40
2017-09-07T20:39:09.413Z,9.30
2017-09-07T20:41:38.200Z,9.30
2017-09-07T20:44:06.988Z,9.30
2017-09-07T20:46:35.796Z,9.40
2017-09-07T20:49:03.824Z,9.40
2017-09-07T20:51:31.845Z,9.40
2017-09-07T20:53:59.884Z,9.40
2017-09-07T20:56:28.672Z,9.50
2017-09-07T20:59:02.260Z,9.50
2017-09-07T21:01:30.728Z,9.50
2017-09-07T21:04:02.412Z,9.40
2017-09-07T21:06:32.192Z,9.30
2017-09-07T21:09:00.212Z,9.30
2017-09-07T21:11:28.248Z,9.30
2017-09-07T21:13:56.264Z,9.20
2017-09-07T21:16:24.276Z,9.20
2017-09-07T21:18:52.295Z,9.20
2017-09-07T21:21:20.320Z,9.20
2017-09-07T21:23:48.335Z,9.20
2017-09-07T21:26:16.368Z,9.10
2017-09-07T21:28:44.655Z,9.00
2017-09-07T21:31:15.357Z,8.90
2017-09-07T21:33:43.405Z,8.90
2017-09-07T21:36:10.920Z,8.90
2017-09-07T21:38:38.444Z,8.90
2017-09-07T21:41:11.848Z,9.00
2017-09-07T21:43:39.867Z,9.00
2017-09-07T21:46:07.888Z,9.00
2017-09-07T21:48:35.919Z,9.20
2017-09-07T21:51:03.928Z,9.20
2017-09-07T21:53:39.279Z,9.20
2017-09-07T21:56:12.343Z,9.20
2017-09-07T21:58:41.347Z,9.10
2017-09-07T22:01:13.191Z,9.10
2017-09-07T22:03:41.226Z,9.10
2017-09-07T22:06:11.143Z,9.00
2017-09-07T22:08:39.172Z,8.90
2017-09-07T22:11:07.319Z,8.90
2017-09-07T22:13:35.340Z,8.90
2017-09-07T22:16:03.379Z,8.90
2017-09-07T22:18:33.391Z,8.80
2017-09-07T22:21:07.722Z,8.70
2017-09-07T22:23:38.431Z,8.60
2017-09-07T22:26:08.451Z,8.60
2017-09-07T22:28:37.427Z,8.60
2017-09-07T22:31:05.479Z,8.60
2017-09-07T22:33:34.499Z,8.60
2017-09-07T22:36:02.515Z,8.60
2017-09-07T22:38:30.543Z,8.60
2017-09-07T22:41:01.282Z,8.50
2017-09-07T22:43:30.287Z,8.50
2017-09-07T22:45:59.075Z,8.50
2017-09-07T22:48:27.851Z,8.50
2017-09-07T22:50:55.870Z,8.40
2017-09-07T22:53:24.935Z,8.50
2017-09-07T22:55:54.707Z,8.60
2017-09-07T22:58:22.743Z,8.60
2017-09-07T23:00:50.763Z,8.80
2017-09-07T23:03:18.770Z,8.80
2017-09-07T23:05:46.802Z,8.80
2017-09-07T23:08:14.814Z,8.90
2017-09-07T23:10:42.830Z,9.00
2017-09-07T23:13:10.878Z,9.00
2017-09-07T23:15:38.942Z,9.00
2017-09-07T23:18:07.970Z,8.90
2017-09-07T23:20:36.962Z,9.00
2017-09-07T23:23:05.943Z,8.90
2017-09-07T23:25:33.954Z,9.00
2017-09-07T23:28:02.774Z,9.10
2017-09-07T23:30:38.350Z,9.20
2017-09-07T23:33:06.386Z,9.10
2017-09-07T23:35:34.407Z,9.10
2017-09-07T23:38:02.418Z,9.10
2017-09-07T23:40:31.358Z,8.90
2017-09-07T23:42:59.375Z,8.80
2017-09-07T23:45:29.326Z,8.80
2017-09-07T23:47:57.362Z,8.70
2017-09-07T23:50:25.375Z,8.70
2017-09-07T23:52:53.394Z,8.70
2017-09-07T23:55:21.427Z,8.70
2017-09-07T23:57:49.438Z,8.70
